sensor_id;sensor_type;location;lat;lon;timestamp;P1;durP1;ratioP1;P2;durP2;ratioP2
41077;SDS011;26823;42.662;23.352;2022-09-09T00:09:54;9.48;;;8.25;;
41077;SDS011;26823;42.662;23.352;2022-09-09T00:12:25;9.52;;;8.50;;
41077;SDS011;26823;42.662;23.352;2022-09-09T00:15:00;10.05;;;7.75;;
41077;SDS011;26823;42.662;23.352;2022-09-09T00:17:45;12.45;;;7.97;;
41077;SDS011;26823;42.662;23.352;2022-09-09T00:20:32;12.45;;;8.25;;
41077;SDS011;26823;42.662;23.352;2022-09-09T00:28:26;8.95;;;7.75;;
41077;SDS011;26823;42.662;23.352;2022-09-09T00:30:55;14.20;;;8.33;;
41077;SDS011;26823;42.662;23.352;2022-09-09T00:33:26;11.20;;;8.82;;
41077;SDS011;26823;42.662;23.352;2022-09-09T00:35:56;11.82;;;8.32;;
41077;SDS011;26823;42.662;23.352;2022-09-09T00:43:32;9.10;;;8.02;;
41077;SDS011;26823;42.662;23.352;2022-09-09T00:46:14;12.43;;;7.63;;
41077;SDS011;26823;42.662;23.352;2022-09-09T00:48:47;9.82;;;7.88;;
41077;SDS011;26823;42.662;23.352;2022-09-09T00:51:35;9.13;;;8.23;;
41077;SDS011;26823;42.662;23.352;2022-09-09T00:57:15;10.38;;;8.25;;
41077;SDS011;26823;42.662;23.352;2022-09-09T00:59:52;9.38;;;7.88;;
41077;SDS011;26823;42.662;23.352;2022-09-09T01:04:56;11.00;;;7.00;;
41077;SDS011;26823;42.662;23.352;2022-09-09T01:07:30;10.35;;;7.40;;
41077;SDS011;26823;42.662;23.352;2022-09-09T01:09:57;9.70;;;7.38;;
41077;SDS011;26823;42.662;23.352;2022-09-09T01:12:47;13.43;;;8.25;;
41077;SDS011;26823;42.662;23.352;2022-09-09T01:15:14;8.63;;;7.50;;
41077;SDS011;26823;42.662;23.352;2022-09-09T01:28:30;9.55;;;7.70;;
41077;SDS011;26823;42.662;23.352;2022-09-09T01:30:57;9.75;;;8.38;;
41077;SDS011;26823;42.662;23.352;2022-09-09T01:33:23;10.57;;;8.48;;
41077;SDS011;26823;42.662;23.352;2022-09-09T01:35:53;9.20;;;8.18;;
41077;SDS011;26823;42.662;23.352;2022-09-09T01:38:37;9.50;;;7.00;;
41077;SDS011;26823;42.662;23.352;2022-09-09T01:41:03;10.30;;;7.82;;
41077;SDS011;26823;42.662;23.352;2022-09-09T01:43:29;11.95;;;8.20;;
41077;SDS011;26823;42.662;23.352;2022-09-09T01:45:55;10.43;;;8.13;;
41077;SDS011;26823;42.662;23.352;2022-09-09T01:48:23;9.82;;;8.07;;
41077;SDS011;26823;42.662;23.352;2022-09-09T01:50:50;9.95;;;8.20;;
41077;SDS011;26823;42.662;23.352;2022-09-09T01:53:16;10.30;;;7.82;;
41077;SDS011;26823;42.662;23.352;2022-09-09T01:58:47;9.65;;;7.40;;
41077;SDS011;26823;42.662;23.352;2022-09-09T02:03:52;10.13;;;8.15;;
41077;SDS011;26823;42.662;23.352;2022-09-09T02:09:05;9.35;;;8.25;;
41077;SDS011;26823;42.662;23.352;2022-09-09T02:11:32;10.45;;;7.72;;
41077;SDS011;26823;42.662;23.352;2022-09-09T02:14:08;10.10;;;8.07;;
41077;SDS011;26823;42.662;23.352;2022-09-09T02:22:02;10.75;;;8.80;;
41077;SDS011;26823;42.662;23.352;2022-09-09T02:24:32;10.50;;;7.43;;
41077;SDS011;26823;42.662;23.352;2022-09-09T02:27:00;9.68;;;7.82;;
41077;SDS011;26823;42.662;23.352;2022-09-09T02:29:40;10.20;;;8.15;;
41077;SDS011;26823;42.662;23.352;2022-09-09T02:32:09;9.32;;;7.68;;
41077;SDS011;26823;42.662;23.352;2022-09-09T02:34:40;10.18;;;7.75;;
41077;SDS011;26823;42.662;23.352;2022-09-09T02:37:10;9.32;;;8.00;;
41077;SDS011;26823;42.662;23.352;2022-09-09T02:39:37;10.25;;;7.97;;
41077;SDS011;26823;42.662;23.352;2022-09-09T02:42:03;12.10;;;8.00;;
41077;SDS011;26823;42.662;23.352;2022-09-09T02:44:29;9.25;;;7.63;;
41077;SDS011;26823;42.662;23.352;2022-09-09T02:52:58;11.02;;;8.13;;
41077;SDS011;26823;42.662;23.352;2022-09-09T02:55:03;11.50;;;8.43;;
41077;SDS011;26823;42.662;23.352;2022-09-09T02:57:35;8.75;;;7.45;;
41077;SDS011;26823;42.662;23.352;2022-09-09T03:00:03;11.60;;;8.02;;
41077;SDS011;26823;42.662;23.352;2022-09-09T03:02:29;8.65;;;7.78;;
41077;SDS011;26823;42.662;23.352;2022-09-09T03:04:55;10.82;;;8.32;;
41077;SDS011;26823;42.662;23.352;2022-09-09T03:07:20;10.95;;;8.45;;
41077;SDS011;26823;42.662;23.352;2022-09-09T03:09:46;10.57;;;8.32;;
41077;SDS011;26823;42.662;23.352;2022-09-09T03:12:11;9.68;;;8.20;;
41077;SDS011;26823;42.662;23.352;2022-09-09T03:14:37;10.00;;;8.43;;
41077;SDS011;26823;42.662;23.352;2022-09-09T03:17:03;10.27;;;8.38;;
41077;SDS011;26823;42.662;23.352;2022-09-09T03:19:36;9.32;;;7.95;;
41077;SDS011;26823;42.662;23.352;2022-09-09T03:22:02;11.35;;;8.70;;
41077;SDS011;26823;42.662;23.352;2022-09-09T03:24:29;11.73;;;8.07;;
41077;SDS011;26823;42.662;23.352;2022-09-09T03:26:55;10.13;;;8.85;;
41077;SDS011;26823;42.662;23.352;2022-09-09T03:29:20;13.65;;;8.90;;
41077;SDS011;26823;42.662;23.352;2022-09-09T03:31:46;11.90;;;8.15;;
41077;SDS011;26823;42.662;23.352;2022-09-09T03:34:12;11.93;;;9.18;;
41077;SDS011;26823;42.662;23.352;2022-09-09T03:36:38;11.52;;;8.48;;
41077;SDS011;26823;42.662;23.352;2022-09-09T03:39:06;11.80;;;8.65;;
41077;SDS011;26823;42.662;23.352;2022-09-09T03:41:31;11.00;;;8.55;;
41077;SDS011;26823;42.662;23.352;2022-09-09T03:43:57;9.48;;;8.10;;
41077;SDS011;26823;42.662;23.352;2022-09-09T03:46:23;11.35;;;7.90;;
41077;SDS011;26823;42.662;23.352;2022-09-09T03:48:50;13.10;;;9.10;;
41077;SDS011;26823;42.662;23.352;2022-09-09T03:51:17;10.52;;;8.90;;
41077;SDS011;26823;42.662;23.352;2022-09-09T03:53:43;10.40;;;8.85;;
41077;SDS011;26823;42.662;23.352;2022-09-09T03:56:09;9.15;;;7.97;;
41077;SDS011;26823;42.662;23.352;2022-09-09T03:58:35;11.93;;;8.32;;
41077;SDS011;26823;42.662;23.352;2022-09-09T04:01:05;10.75;;;8.88;;
41077;SDS011;26823;42.662;23.352;2022-09-09T04:03:35;11.75;;;9.07;;
41077;SDS011;26823;42.662;23.352;2022-09-09T04:06:01;10.35;;;9.13;;
41077;SDS011;26823;42.662;23.352;2022-09-09T04:08:28;10.57;;;8.70;;
41077;SDS011;26823;42.662;23.352;2022-09-09T04:10:56;10.27;;;8.50;;
41077;SDS011;26823;42.662;23.352;2022-09-09T04:13:23;10.05;;;8.93;;
41077;SDS011;26823;42.662;23.352;2022-09-09T04:15:53;10.60;;;8.38;;
41077;SDS011;26823;42.662;23.352;2022-09-09T04:18:20;12.20;;;9.32;;
41077;SDS011;26823;42.662;23.352;2022-09-09T04:20:46;13.77;;;8.98;;
41077;SDS011;26823;42.662;23.352;2022-09-09T04:23:16;12.35;;;9.45;;
41077;SDS011;26823;42.662;23.352;2022-09-09T04:25:44;13.50;;;9.65;;
41077;SDS011;26823;42.662;23.352;2022-09-09T04:28:11;15.30;;;10.77;;
41077;SDS011;26823;42.662;23.352;2022-09-09T04:30:38;12.23;;;8.45;;
41077;SDS011;26823;42.662;23.352;2022-09-09T04:33:10;17.48;;;10.23;;
41077;SDS011;26823;42.662;23.352;2022-09-09T04:35:36;13.43;;;9.48;;
41077;SDS011;26823;42.662;23.352;2022-09-09T04:38:03;13.38;;;9.63;;
41077;SDS011;26823;42.662;23.352;2022-09-09T04:40:29;13.23;;;10.18;;
41077;SDS011;26823;42.662;23.352;2022-09-09T04:42:59;12.80;;;10.60;;
41077;SDS011;26823;42.662;23.352;2022-09-09T04:45:25;11.75;;;9.57;;
41077;SDS011;26823;42.662;23.352;2022-09-09T04:47:51;13.45;;;8.57;;
41077;SDS011;26823;42.662;23.352;2022-09-09T04:50:17;12.35;;;9.75;;
41077;SDS011;26823;42.662;23.352;2022-09-09T04:52:43;11.77;;;9.57;;
41077;SDS011;26823;42.662;23.352;2022-09-09T04:55:09;11.20;;;9.77;;
41077;SDS011;26823;42.662;23.352;2022-09-09T04:57:35;10.50;;;9.05;;
41077;SDS011;26823;42.662;23.352;2022-09-09T05:00:00;11.25;;;9.30;;
41077;SDS011;26823;42.662;23.352;2022-09-09T05:02:26;10.45;;;9.18;;
41077;SDS011;26823;42.662;23.352;2022-09-09T05:04:52;13.32;;;9.20;;
41077;SDS011;26823;42.662;23.352;2022-09-09T05:07:17;12.38;;;9.77;;
41077;SDS011;26823;42.662;23.352;2022-09-09T05:09:43;13.70;;;10.18;;
41077;SDS011;26823;42.662;23.352;2022-09-09T05:12:10;15.27;;;10.85;;
41077;SDS011;26823;42.662;23.352;2022-09-09T05:14:36;13.30;;;10.75;;
41077;SDS011;26823;42.662;23.352;2022-09-09T05:17:02;12.95;;;10.50;;
41077;SDS011;26823;42.662;23.352;2022-09-09T05:19:28;15.13;;;9.75;;
41077;SDS011;26823;42.662;23.352;2022-09-09T05:21:55;11.48;;;10.23;;
41077;SDS011;26823;42.662;23.352;2022-09-09T05:24:21;13.77;;;10.52;;
41077;SDS011;26823;42.662;23.352;2022-09-09T05:26:48;11.70;;;9.95;;
41077;SDS011;26823;42.662;23.352;2022-09-09T05:29:13;15.02;;;10.00;;
41077;SDS011;26823;42.662;23.352;2022-09-09T05:31:39;12.18;;;8.95;;
41077;SDS011;26823;42.662;23.352;2022-09-09T05:34:06;9.32;;;8.20;;
41077;SDS011;26823;42.662;23.352;2022-09-09T05:36:31;13.25;;;9.10;;
41077;SDS011;26823;42.662;23.352;2022-09-09T05:38:57;11.52;;;8.63;;
41077;SDS011;26823;42.662;23.352;2022-09-09T05:41:23;11.75;;;8.18;;
41077;SDS011;26823;42.662;23.352;2022-09-09T05:43:48;10.32;;;8.32;;
41077;SDS011;26823;42.662;23.352;2022-09-09T05:46:15;8.15;;;7.35;;
41077;SDS011;26823;42.662;23.352;2022-09-09T05:48:45;10.40;;;9.10;;
41077;SDS011;26823;42.662;23.352;2022-09-09T05:51:13;9.55;;;7.07;;
41077;SDS011;26823;42.662;23.352;2022-09-09T05:53:43;8.27;;;7.13;;
41077;SDS011;26823;42.662;23.352;2022-09-09T05:56:13;9.52;;;7.25;;
41077;SDS011;26823;42.662;23.352;2022-09-09T05:58:42;7.53;;;6.25;;
41077;SDS011;26823;42.662;23.352;2022-09-09T06:01:12;6.53;;;5.90;;
41077;SDS011;26823;42.662;23.352;2022-09-09T06:03:40;8.68;;;7.65;;
41077;SDS011;26823;42.662;23.352;2022-09-09T06:06:10;8.75;;;6.40;;
41077;SDS011;26823;42.662;23.352;2022-09-09T06:08:38;8.90;;;7.50;;
41077;SDS011;26823;42.662;23.352;2022-09-09T06:11:15;6.95;;;6.18;;
41077;SDS011;26823;42.662;23.352;2022-09-09T06:13:43;7.00;;;6.30;;
41077;SDS011;26823;42.662;23.352;2022-09-09T06:16:09;8.82;;;6.55;;
41077;SDS011;26823;42.662;23.352;2022-09-09T06:18:36;7.03;;;6.25;;
41077;SDS011;26823;42.662;23.352;2022-09-09T06:21:06;8.68;;;7.40;;
41077;SDS011;26823;42.662;23.352;2022-09-09T06:23:36;9.18;;;6.38;;
41077;SDS011;26823;42.662;23.352;2022-09-09T06:26:02;9.90;;;6.50;;
41077;SDS011;26823;42.662;23.352;2022-09-09T06:28:30;7.28;;;6.53;;
41077;SDS011;26823;42.662;23.352;2022-09-09T06:31:00;7.30;;;6.60;;
41077;SDS011;26823;42.662;23.352;2022-09-09T06:33:30;10.25;;;6.47;;
41077;SDS011;26823;42.662;23.352;2022-09-09T06:35:56;9.60;;;6.88;;
41077;SDS011;26823;42.662;23.352;2022-09-09T06:38:23;8.30;;;7.45;;
41077;SDS011;26823;42.662;23.352;2022-09-09T06:40:55;8.10;;;6.95;;
41077;SDS011;26823;42.662;23.352;2022-09-09T06:43:23;10.05;;;6.82;;
41077;SDS011;26823;42.662;23.352;2022-09-09T06:45:56;8.68;;;6.95;;
41077;SDS011;26823;42.662;23.352;2022-09-09T06:48:25;8.35;;;6.22;;
41077;SDS011;26823;42.662;23.352;2022-09-09T06:53:53;7.03;;;5.45;;
41077;SDS011;26823;42.662;23.352;2022-09-09T06:56:26;6.95;;;6.25;;
41077;SDS011;26823;42.662;23.352;2022-09-09T06:59:00;6.60;;;5.65;;
41077;SDS011;26823;42.662;23.352;2022-09-09T07:01:29;6.05;;;5.45;;
41077;SDS011;26823;42.662;23.352;2022-09-09T07:03:57;6.53;;;5.93;;
41077;SDS011;26823;42.662;23.352;2022-09-09T07:06:30;7.28;;;6.18;;
41077;SDS011;26823;42.662;23.352;2022-09-09T07:09:07;7.68;;;5.90;;
41077;SDS011;26823;42.662;23.352;2022-09-09T07:11:36;12.15;;;8.05;;
41077;SDS011;26823;42.662;23.352;2022-09-09T07:14:06;8.70;;;5.47;;
41077;SDS011;26823;42.662;23.352;2022-09-09T07:16:33;5.70;;;5.13;;
41077;SDS011;26823;42.662;23.352;2022-09-09T07:18:58;5.78;;;5.28;;
41077;SDS011;26823;42.662;23.352;2022-09-09T07:21:24;7.68;;;5.38;;
41077;SDS011;26823;42.662;23.352;2022-09-09T07:23:53;6.30;;;5.35;;
41077;SDS011;26823;42.662;23.352;2022-09-09T07:26:20;5.95;;;5.30;;
41077;SDS011;26823;42.662;23.352;2022-09-09T07:28:48;6.05;;;5.32;;
41077;SDS011;26823;42.662;23.352;2022-09-09T07:31:18;8.70;;;5.43;;
41077;SDS011;26823;42.662;23.352;2022-09-09T07:33:45;5.82;;;5.22;;
41077;SDS011;26823;42.662;23.352;2022-09-09T07:36:13;5.78;;;5.18;;
41077;SDS011;26823;42.662;23.352;2022-09-09T07:38:42;6.55;;;5.22;;
41077;SDS011;26823;42.662;23.352;2022-09-09T07:41:11;6.68;;;6.07;;
41077;SDS011;26823;42.662;23.352;2022-09-09T07:43:44;5.15;;;4.65;;
41077;SDS011;26823;42.662;23.352;2022-09-09T07:46:11;6.60;;;5.18;;
41077;SDS011;26823;42.662;23.352;2022-09-09T07:48:42;6.18;;;4.13;;
41077;SDS011;26823;42.662;23.352;2022-09-09T07:51:16;6.25;;;4.97;;
41077;SDS011;26823;42.662;23.352;2022-09-09T07:53:45;4.68;;;4.28;;
41077;SDS011;26823;42.662;23.352;2022-09-09T07:56:12;5.68;;;4.78;;
41077;SDS011;26823;42.662;23.352;2022-09-09T07:58:40;4.88;;;4.40;;
41077;SDS011;26823;42.662;23.352;2022-09-09T08:01:09;4.97;;;4.13;;
41077;SDS011;26823;42.662;23.352;2022-09-09T08:03:37;5.60;;;4.68;;
41077;SDS011;26823;42.662;23.352;2022-09-09T08:06:04;4.82;;;4.32;;
41077;SDS011;26823;42.662;23.352;2022-09-09T08:08:32;5.93;;;4.78;;
41077;SDS011;26823;42.662;23.352;2022-09-09T08:11:05;4.95;;;4.10;;
41077;SDS011;26823;42.662;23.352;2022-09-09T08:13:35;5.05;;;3.78;;
41077;SDS011;26823;42.662;23.352;2022-09-09T08:16:09;4.32;;;3.92;;
41077;SDS011;26823;42.662;23.352;2022-09-09T08:18:37;3.80;;;3.03;;
41077;SDS011;26823;42.662;23.352;2022-09-09T08:21:07;5.90;;;4.32;;
41077;SDS011;26823;42.662;23.352;2022-09-09T08:23:36;3.53;;;3.22;;
41077;SDS011;26823;42.662;23.352;2022-09-09T08:26:13;4.13;;;3.65;;
41077;SDS011;26823;42.662;23.352;2022-09-09T08:28:41;4.40;;;4.00;;
41077;SDS011;26823;42.662;23.352;2022-09-09T08:31:14;4.65;;;4.25;;
41077;SDS011;26823;42.662;23.352;2022-09-09T08:33:41;4.38;;;3.97;;
41077;SDS011;26823;42.662;23.352;2022-09-09T08:36:10;4.63;;;3.83;;
41077;SDS011;26823;42.662;23.352;2022-09-09T08:38:38;9.77;;;4.07;;
41077;SDS011;26823;42.662;23.352;2022-09-09T08:41:07;5.53;;;4.43;;
41077;SDS011;26823;42.662;23.352;2022-09-09T08:43:46;6.15;;;4.03;;
41077;SDS011;26823;42.662;23.352;2022-09-09T08:46:24;4.78;;;4.30;;
41077;SDS011;26823;42.662;23.352;2022-09-09T08:49:03;4.43;;;4.00;;
41077;SDS011;26823;42.662;23.352;2022-09-09T08:51:50;4.72;;;4.25;;
41077;SDS011;26823;42.662;23.352;2022-09-09T08:54:18;4.45;;;4.05;;
41077;SDS011;26823;42.662;23.352;2022-09-09T08:56:44;4.93;;;4.43;;
41077;SDS011;26823;42.662;23.352;2022-09-09T08:59:10;6.25;;;3.90;;
41077;SDS011;26823;42.662;23.352;2022-09-09T09:12:25;6.60;;;4.10;;
41077;SDS011;26823;42.662;23.352;2022-09-09T09:14:54;4.22;;;3.80;;
41077;SDS011;26823;42.662;23.352;2022-09-09T09:17:23;4.25;;;3.85;;
41077;SDS011;26823;42.662;23.352;2022-09-09T09:19:52;6.93;;;4.65;;
41077;SDS011;26823;42.662;23.352;2022-09-09T09:22:18;4.82;;;4.00;;
41077;SDS011;26823;42.662;23.352;2022-09-09T09:27:34;5.63;;;5.03;;
41077;SDS011;26823;42.662;23.352;2022-09-09T09:30:16;4.88;;;4.47;;
41077;SDS011;26823;42.662;23.352;2022-09-09T09:32:46;4.80;;;4.15;;
41077;SDS011;26823;42.662;23.352;2022-09-09T09:35:21;7.82;;;4.88;;
41077;SDS011;26823;42.662;23.352;2022-09-09T09:37:46;4.63;;;4.22;;
41077;SDS011;26823;42.662;23.352;2022-09-09T09:40:17;4.82;;;4.32;;
41077;SDS011;26823;42.662;23.352;2022-09-09T09:42:54;4.63;;;4.20;;
41077;SDS011;26823;42.662;23.352;2022-09-09T09:47:59;6.20;;;5.25;;
41077;SDS011;26823;42.662;23.352;2022-09-09T09:50:27;4.60;;;3.92;;
41077;SDS011;26823;42.662;23.352;2022-09-09T09:52:53;5.13;;;4.32;;
41077;SDS011;26823;42.662;23.352;2022-09-09T09:55:22;4.40;;;3.97;;
41077;SDS011;26823;42.662;23.352;2022-09-09T09:57:49;4.50;;;4.10;;
41077;SDS011;26823;42.662;23.352;2022-09-09T10:00:16;4.68;;;4.05;;
41077;SDS011;26823;42.662;23.352;2022-09-09T10:02:44;5.35;;;4.72;;
41077;SDS011;26823;42.662;23.352;2022-09-09T10:07:47;5.13;;;4.13;;
41077;SDS011;26823;42.662;23.352;2022-09-09T10:10:26;6.13;;;4.95;;
41077;SDS011;26823;42.662;23.352;2022-09-09T10:23:46;6.72;;;4.80;;
41077;SDS011;26823;42.662;23.352;2022-09-09T10:32:06;4.60;;;4.18;;
41077;SDS011;26823;42.662;23.352;2022-09-09T10:38:02;4.47;;;3.72;;
41077;SDS011;26823;42.662;23.352;2022-09-09T10:46:13;5.25;;;4.75;;
41077;SDS011;26823;42.662;23.352;2022-09-09T10:54:45;6.07;;;5.47;;
41077;SDS011;26823;42.662;23.352;2022-09-09T11:00:01;6.97;;;4.75;;
41077;SDS011;26823;42.662;23.352;2022-09-09T11:02:30;5.25;;;4.32;;
41077;SDS011;26823;42.662;23.352;2022-09-09T11:05:05;4.95;;;4.55;;
41077;SDS011;26823;42.662;23.352;2022-09-09T11:10:15;5.65;;;4.68;;
41077;SDS011;26823;42.662;23.352;2022-09-09T11:13:01;8.95;;;4.80;;
41077;SDS011;26823;42.662;23.352;2022-09-09T11:15:41;5.32;;;4.82;;
41077;SDS011;26823;42.662;23.352;2022-09-09T11:18:19;8.52;;;6.03;;
41077;SDS011;26823;42.662;23.352;2022-09-09T11:20:47;6.00;;;5.30;;
41077;SDS011;26823;42.662;23.352;2022-09-09T11:23:17;6.88;;;4.47;;
41077;SDS011;26823;42.662;23.352;2022-09-09T11:25:54;7.57;;;5.05;;
41077;SDS011;26823;42.662;23.352;2022-09-09T11:41:46;6.05;;;5.45;;
41077;SDS011;26823;42.662;23.352;2022-09-09T11:44:26;6.93;;;5.80;;
41077;SDS011;26823;42.662;23.352;2022-09-09T11:46:55;7.43;;;5.32;;
41077;SDS011;26823;42.662;23.352;2022-09-09T11:55:11;6.82;;;5.40;;
41077;SDS011;26823;42.662;23.352;2022-09-09T12:00:39;4.97;;;4.30;;
41077;SDS011;26823;42.662;23.352;2022-09-09T12:06:16;6.15;;;5.47;;
41077;SDS011;26823;42.662;23.352;2022-09-09T12:09:07;7.15;;;5.85;;
41077;SDS011;26823;42.662;23.352;2022-09-09T12:11:48;9.32;;;5.97;;
41077;SDS011;26823;42.662;23.352;2022-09-09T12:14:34;7.20;;;5.72;;
41077;SDS011;26823;42.662;23.352;2022-09-09T12:17:36;7.72;;;6.10;;
41077;SDS011;26823;42.662;23.352;2022-09-09T12:20:16;8.00;;;6.05;;
41077;SDS011;26823;42.662;23.352;2022-09-09T12:30:50;6.22;;;5.63;;
41077;SDS011;26823;42.662;23.352;2022-09-09T12:33:19;6.18;;;5.65;;
41077;SDS011;26823;42.662;23.352;2022-09-09T12:35:45;8.07;;;5.68;;
41077;SDS011;26823;42.662;23.352;2022-09-09T12:41:01;6.97;;;6.25;;
41077;SDS011;26823;42.662;23.352;2022-09-09T12:43:28;10.90;;;6.10;;
41077;SDS011;26823;42.662;23.352;2022-09-09T12:45:59;7.75;;;5.10;;
41077;SDS011;26823;42.662;23.352;2022-09-09T12:48:38;9.80;;;5.93;;
41077;SDS011;26823;42.662;23.352;2022-09-09T12:51:15;6.10;;;5.50;;
41077;SDS011;26823;42.662;23.352;2022-09-09T12:53:50;7.03;;;6.10;;
41077;SDS011;26823;42.662;23.352;2022-09-09T12:56:20;7.60;;;5.60;;
41077;SDS011;26823;42.662;23.352;2022-09-09T12:58:50;10.10;;;6.17;;
41077;SDS011;26823;42.662;23.352;2022-09-09T13:01:30;10.10;;;6.63;;
41077;SDS011;26823;42.662;23.352;2022-09-09T13:03:58;6.82;;;6.07;;
41077;SDS011;26823;42.662;23.352;2022-09-09T13:06:25;7.90;;;6.22;;
41077;SDS011;26823;42.662;23.352;2022-09-09T13:08:53;6.88;;;5.15;;
41077;SDS011;26823;42.662;23.352;2022-09-09T13:11:24;7.07;;;5.50;;
41077;SDS011;26823;42.662;23.352;2022-09-09T13:14:03;6.47;;;5.68;;
41077;SDS011;26823;42.662;23.352;2022-09-09T13:16:30;8.02;;;5.68;;
41077;SDS011;26823;42.662;23.352;2022-09-09T13:18:58;7.25;;;6.05;;
41077;SDS011;26823;42.662;23.352;2022-09-09T13:21:42;9.10;;;5.85;;
41077;SDS011;26823;42.662;23.352;2022-09-09T13:27:24;6.65;;;5.80;;
41077;SDS011;26823;42.662;23.352;2022-09-09T13:29:54;8.32;;;6.57;;
41077;SDS011;26823;42.662;23.352;2022-09-09T13:32:27;6.00;;;5.40;;
41077;SDS011;26823;42.662;23.352;2022-09-09T13:34:54;8.02;;;6.35;;
41077;SDS011;26823;42.662;23.352;2022-09-09T13:37:43;7.10;;;6.28;;
41077;SDS011;26823;42.662;23.352;2022-09-09T13:40:17;5.95;;;5.38;;
41077;SDS011;26823;42.662;23.352;2022-09-09T13:42:45;6.65;;;5.97;;
41077;SDS011;26823;42.662;23.352;2022-09-09T13:45:20;6.60;;;5.88;;
41077;SDS011;26823;42.662;23.352;2022-09-09T13:47:48;6.85;;;5.80;;
41077;SDS011;26823;42.662;23.352;2022-09-09T13:50:21;6.60;;;6.00;;
41077;SDS011;26823;42.662;23.352;2022-09-09T13:52:50;7.65;;;6.55;;
41077;SDS011;26823;42.662;23.352;2022-09-09T13:55:18;9.00;;;5.93;;
41077;SDS011;26823;42.662;23.352;2022-09-09T14:00:22;7.22;;;6.15;;
41077;SDS011;26823;42.662;23.352;2022-09-09T14:02:49;8.52;;;5.68;;
41077;SDS011;26823;42.662;23.352;2022-09-09T14:05:16;6.78;;;6.00;;
41077;SDS011;26823;42.662;23.352;2022-09-09T14:07:43;10.20;;;6.55;;
41077;SDS011;26823;42.662;23.352;2022-09-09T14:10:09;6.75;;;6.03;;
41077;SDS011;26823;42.662;23.352;2022-09-09T14:12:35;7.40;;;5.50;;
41077;SDS011;26823;42.662;23.352;2022-09-09T14:15:04;6.65;;;5.95;;
41077;SDS011;26823;42.662;23.352;2022-09-09T14:17:31;6.40;;;5.65;;
41077;SDS011;26823;42.662;23.352;2022-09-09T14:19:57;6.63;;;5.88;;
41077;SDS011;26823;42.662;23.352;2022-09-09T14:22:23;11.45;;;6.78;;
41077;SDS011;26823;42.662;23.352;2022-09-09T14:24:49;9.88;;;6.10;;
41077;SDS011;26823;42.662;23.352;2022-09-09T14:27:15;8.25;;;5.57;;
41077;SDS011;26823;42.662;23.352;2022-09-09T14:29:41;8.43;;;6.43;;
41077;SDS011;26823;42.662;23.352;2022-09-09T14:32:08;6.20;;;5.50;;
41077;SDS011;26823;42.662;23.352;2022-09-09T14:34:34;7.47;;;5.50;;
41077;SDS011;26823;42.662;23.352;2022-09-09T14:37:00;7.03;;;5.70;;
41077;SDS011;26823;42.662;23.352;2022-09-09T14:39:25;6.35;;;5.75;;
41077;SDS011;26823;42.662;23.352;2022-09-09T14:41:51;7.95;;;5.70;;
41077;SDS011;26823;42.662;23.352;2022-09-09T14:44:16;7.53;;;5.85;;
41077;SDS011;26823;42.662;23.352;2022-09-09T14:46:42;8.38;;;5.75;;
41077;SDS011;26823;42.662;23.352;2022-09-09T14:49:08;5.72;;;5.18;;
41077;SDS011;26823;42.662;23.352;2022-09-09T14:51:35;7.50;;;5.22;;
41077;SDS011;26823;42.662;23.352;2022-09-09T14:54:00;5.82;;;5.20;;
41077;SDS011;26823;42.662;23.352;2022-09-09T14:56:28;7.20;;;5.82;;
41077;SDS011;26823;42.662;23.352;2022-09-09T14:58:55;7.28;;;5.32;;
41077;SDS011;26823;42.662;23.352;2022-09-09T15:01:22;7.75;;;5.22;;
41077;SDS011;26823;42.662;23.352;2022-09-09T15:03:49;9.95;;;5.93;;
41077;SDS011;26823;42.662;23.352;2022-09-09T15:06:16;8.30;;;5.88;;
41077;SDS011;26823;42.662;23.352;2022-09-09T15:08:42;7.28;;;5.57;;
41077;SDS011;26823;42.662;23.352;2022-09-09T15:11:09;11.07;;;6.18;;
41077;SDS011;26823;42.662;23.352;2022-09-09T15:13:37;9.05;;;7.35;;
41077;SDS011;26823;42.662;23.352;2022-09-09T15:16:04;6.68;;;6.05;;
41077;SDS011;26823;42.662;23.352;2022-09-09T15:18:31;7.20;;;6.05;;
41077;SDS011;26823;42.662;23.352;2022-09-09T15:20:58;7.53;;;6.25;;
41077;SDS011;26823;42.662;23.352;2022-09-09T15:23:33;7.30;;;5.93;;
41077;SDS011;26823;42.662;23.352;2022-09-09T15:25:59;6.10;;;5.32;;
41077;SDS011;26823;42.662;23.352;2022-09-09T15:28:25;6.07;;;5.30;;
41077;SDS011;26823;42.662;23.352;2022-09-09T15:30:50;5.88;;;5.30;;
41077;SDS011;26823;42.662;23.352;2022-09-09T15:33:17;8.15;;;5.60;;
41077;SDS011;26823;42.662;23.352;2022-09-09T15:35:44;7.97;;;5.75;;
41077;SDS011;26823;42.662;23.352;2022-09-09T15:38:10;7.35;;;5.75;;
41077;SDS011;26823;42.662;23.352;2022-09-09T15:40:38;8.27;;;5.82;;
41077;SDS011;26823;42.662;23.352;2022-09-09T15:43:04;8.50;;;6.53;;
41077;SDS011;26823;42.662;23.352;2022-09-09T15:45:30;7.90;;;5.90;;
41077;SDS011;26823;42.662;23.352;2022-09-09T15:47:57;5.65;;;5.05;;
41077;SDS011;26823;42.662;23.352;2022-09-09T15:50:23;6.57;;;5.85;;
41077;SDS011;26823;42.662;23.352;2022-09-09T15:52:48;9.00;;;6.40;;
41077;SDS011;26823;42.662;23.352;2022-09-09T15:55:13;6.40;;;4.93;;
41077;SDS011;26823;42.662;23.352;2022-09-09T15:57:39;6.65;;;5.60;;
41077;SDS011;26823;42.662;23.352;2022-09-09T16:00:05;7.28;;;5.90;;
41077;SDS011;26823;42.662;23.352;2022-09-09T16:02:31;6.80;;;5.70;;
41077;SDS011;26823;42.662;23.352;2022-09-09T16:04:58;9.57;;;6.78;;
41077;SDS011;26823;42.662;23.352;2022-09-09T16:07:23;9.77;;;6.35;;
41077;SDS011;26823;42.662;23.352;2022-09-09T16:09:48;10.30;;;6.00;;
41077;SDS011;26823;42.662;23.352;2022-09-09T16:12:16;6.15;;;5.55;;
41077;SDS011;26823;42.662;23.352;2022-09-09T16:14:42;6.75;;;5.97;;
41077;SDS011;26823;42.662;23.352;2022-09-09T16:17:07;6.63;;;5.72;;
41077;SDS011;26823;42.662;23.352;2022-09-09T16:19:33;10.05;;;6.18;;
41077;SDS011;26823;42.662;23.352;2022-09-09T16:21:59;6.68;;;5.85;;
41077;SDS011;26823;42.662;23.352;2022-09-09T16:24:25;8.43;;;6.20;;
41077;SDS011;26823;42.662;23.352;2022-09-09T16:26:52;7.10;;;6.30;;
41077;SDS011;26823;42.662;23.352;2022-09-09T16:29:19;8.52;;;6.40;;
41077;SDS011;26823;42.662;23.352;2022-09-09T16:31:46;9.60;;;6.43;;
41077;SDS011;26823;42.662;23.352;2022-09-09T16:34:12;9.80;;;6.40;;
41077;SDS011;26823;42.662;23.352;2022-09-09T16:36:40;9.93;;;7.60;;
41077;SDS011;26823;42.662;23.352;2022-09-09T16:39:07;9.10;;;6.95;;
41077;SDS011;26823;42.662;23.352;2022-09-09T16:41:34;8.63;;;6.47;;
41077;SDS011;26823;42.662;23.352;2022-09-09T16:44:01;14.85;;;8.48;;
41077;SDS011;26823;42.662;23.352;2022-09-09T16:46:29;10.93;;;8.05;;
41077;SDS011;26823;42.662;23.352;2022-09-09T16:48:55;10.30;;;7.13;;
41077;SDS011;26823;42.662;23.352;2022-09-09T16:51:24;12.25;;;8.13;;
41077;SDS011;26823;42.662;23.352;2022-09-09T16:53:52;8.18;;;7.07;;
41077;SDS011;26823;42.662;23.352;2022-09-09T16:56:19;9.75;;;8.23;;
41077;SDS011;26823;42.662;23.352;2022-09-09T16:58:54;9.13;;;7.25;;
41077;SDS011;26823;42.662;23.352;2022-09-09T17:01:24;8.43;;;6.53;;
41077;SDS011;26823;42.662;23.352;2022-09-09T17:03:57;10.55;;;7.15;;
41077;SDS011;26823;42.662;23.352;2022-09-09T17:06:29;8.80;;;7.18;;
41077;SDS011;26823;42.662;23.352;2022-09-09T17:08:56;8.95;;;6.60;;
41077;SDS011;26823;42.662;23.352;2022-09-09T17:11:23;10.10;;;6.72;;
41077;SDS011;26823;42.662;23.352;2022-09-09T17:13:49;8.45;;;6.00;;
41077;SDS011;26823;42.662;23.352;2022-09-09T17:16:17;9.02;;;6.25;;
41077;SDS011;26823;42.662;23.352;2022-09-09T17:18:43;10.32;;;8.23;;